Time;durP1;ratioP1;P1;durP2;ratioP2;P2;SDS_P1;SDS_P2;PMS_P1;PMS_P2;Temp;Humidity;BMP_temperature;BMP_pressure;BME280_temperature;BME280_humidity;BME280_pressure;Samples;Min_cycle;Max_cycle;Signal;HPM_P1;HPM_P2
2022/06/27 00:00:24;;;;;;;9.40;3.23;;;;;;;-146.64;100.00;116263.06;4985862;28;20136;-75
2022/06/27 00:02:49;;;;;;;12.27;4.67;;;;;;;-146.64;100.00;115729.00;4980492;28;21254;-75
2022/06/27 00:05:16;;;;;;;7.63;3.37;;;;;;;-146.64;100.00;115195.03;5000939;28;20535;-75
2022/06/27 00:07:42;;;;;;;5.22;2.75;;;;;;;-146.64;100.00;115729.00;5011347;28;20029;-75
2022/06/27 00:10:09;;;;;;;6.17;3.00;;;;;;;-146.64;100.00;115462.00;4991501;28;20027;-77
2022/06/27 00:12:34;;;;;;;;;;;;;;;-146.64;100.00;115729.00;4993518;28;20137;-75
2022/06/27 00:14:59;;;;;;;6.03;3.53;;;;;;;-146.64;100.00;116263.06;5007862;28;20007;-75
2022/06/27 00:17:27;;;;;;;5.20;2.33;;;;;;;-146.64;100.00;114928.06;5008458;28;20030;-74
2022/06/27 00:19:53;;;;;;;4.40;2.50;;;;;;;-146.64;100.00;113860.38;5007347;28;20026;-74
2022/06/27 00:22:18;;;;;;;7.03;2.40;;;;;;;-146.64;100.00;114394.19;5005090;28;20084;-75
2022/06/27 00:24:44;;;;;;;5.37;2.70;;;;;;;-146.64;100.00;114127.28;5009727;28;20056;-74
2022/06/27 00:27:09;;;;;;;3.83;2.50;;;;;;;-146.64;100.00;113593.50;5005753;28;20034;-75
2022/06/27 00:29:34;;;;;;;6.60;3.83;;;;;;;-146.64;100.00;113593.50;5003477;28;20374;-75
2022/06/27 00:32:00;;;;;;;8.13;2.93;;;;;;;-146.64;100.00;113593.50;4995006;28;20413;-77
2022/06/27 00:34:25;;;;;;;6.83;3.50;;;;;;;-146.64;100.00;113326.63;5003644;28;20031;-74
2022/06/27 00:36:51;;;;;;;6.50;3.00;;;;;;;-146.64;100.00;114127.28;5017908;28;20038;-75
2022/06/27 00:39:16;;;;;;;6.00;3.03;;;;;;;-146.64;100.00;115729.00;5009359;28;20044;-76
2022/06/27 00:41:41;;;;;;;7.47;2.57;;;;;;;-146.64;100.00;115462.00;4996851;28;20046;-76
2022/06/27 00:44:07;;;;;;;5.53;3.30;;;;;;;-146.64;100.00;116530.09;4988945;28;20485;-75
2022/06/27 00:46:32;;;;;;;6.50;2.60;;;;;;;-146.64;100.00;116530.09;4989577;28;20088;-76
2022/06/27 00:48:58;;;;;;;8.53;3.03;;;;;;;-146.64;100.00;117331.34;5001169;28;20026;-75
2022/06/27 00:51:24;;;;;;;5.93;2.77;;;;;;;-146.64;100.00;117064.25;4993282;28;20100;-75
2022/06/27 00:53:52;;;;;;;6.18;2.75;;;;;;;-146.64;100.00;116530.09;5007872;28;20049;-75
2022/06/27 00:56:17;;;;;;;5.50;2.55;;;;;;;-146.64;100.00;115729.00;4993028;28;20031;-75
2022/06/27 00:58:43;;;;;;;12.07;2.73;;;;;;;-146.64;100.00;115996.03;4986657;28;20129;-75
2022/06/27 01:01:08;;;;;;;6.30;3.07;;;;;;;-146.64;100.00;115462.00;5008164;28;20030;-76
2022/06/27 01:03:34;;;;;;;4.60;2.93;;;;;;;-146.64;100.00;115462.00;5008477;28;20482;-75
2022/06/27 01:05:59;;;;;;;7.17;2.77;;;;;;;-146.64;100.00;114928.06;5006767;28;21350;-76
2022/06/27 01:08:25;;;;;;;5.27;2.53;;;;;;;-146.64;100.00;115462.00;5012054;28;20073;-74
2022/06/27 01:10:50;;;;;;;5.17;2.60;;;;;;;-146.64;100.00;115195.03;5007974;28;20034;-75
2022/06/27 01:13:16;;;;;;;3.60;2.50;;;;;;;-146.64;100.00;116263.06;5000422;28;20449;-75
2022/06/27 01:15:44;;;;;;;5.60;2.67;;;;;;;-146.64;100.00;115996.03;5001793;28;20404;-75
2022/06/27 01:18:10;;;;;;;9.38;2.65;;;;;;;-146.64;100.00;115729.00;4991532;28;20034;-75
2022/06/27 01:20:36;;;;;;;5.80;2.90;;;;;;;-146.64;100.00;115462.00;5009867;28;20037;-75
2022/06/27 01:23:02;;;;;;;9.38;2.83;;;;;;;-146.64;100.00;115462.00;5009325;28;20345;-76
2022/06/27 01:25:27;;;;;;;8.27;2.73;;;;;;;-146.64;100.00;116263.06;5001905;28;20034;-75
2022/06/27 01:27:53;;;;;;;7.03;2.83;;;;;;;-146.64;100.00;116263.06;4989494;28;20058;-75
2022/06/27 01:30:19;;;;;;;9.07;2.67;;;;;;;-146.64;100.00;115462.00;5001386;28;20385;-75
2022/06/27 01:32:45;;;;;;;8.63;3.30;;;;;;;-146.64;100.00;117064.25;5011429;28;20034;-74
2022/06/27 01:35:11;;;;;;;10.47;2.87;;;;;;;-146.64;100.00;117331.34;4991942;28;20056;-75
2022/06/27 01:37:36;;;;;;;8.87;3.03;;;;;;;-146.64;100.00;117064.25;5003767;28;20023;-75
2022/06/27 01:40:02;;;;;;;7.73;3.03;;;;;;;-146.64;100.00;116263.06;4999488;28;20280;-75
2022/06/27 01:42:28;;;;;;;7.17;2.73;;;;;;;-146.64;100.00;116263.06;4991305;28;20033;-75
2022/06/27 01:44:54;;;;;;;7.60;3.47;;;;;;;-146.64;100.00;116530.09;5000188;28;20287;-74
2022/06/27 01:47:19;;;;;;;5.32;2.58;;;;;;;-146.64;100.00;116797.16;5011089;28;20042;-74
2022/06/27 01:49:45;;;;;;;5.17;2.30;;;;;;;-146.64;100.00;117331.34;5000826;28;20401;-75
2022/06/27 01:52:14;;;;;;;4.83;2.73;;;;;;;-146.64;100.00;116797.16;4999782;28;20740;-75
2022/06/27 01:54:40;;;;;;;4.28;2.88;;;;;;;-146.64;100.00;116530.09;5008134;28;20026;-74
2022/06/27 01:57:07;;;;;;;4.53;2.73;;;;;;;-146.64;100.00;116263.06;5006595;28;20176;-74
2022/06/27 01:59:33;;;;;;;8.25;2.95;;;;;;;-146.64;100.00;116797.16;5008917;28;20026;-74
2022/06/27 02:01:59;;;;;;;8.50;2.93;;;;;;;-146.64;100.00;117064.25;5008577;28;20380;-75
2022/06/27 02:04:28;;;;;;;10.60;2.78;;;;;;;-146.64;100.00;117064.25;4996516;28;20284;-75
2022/06/27 02:06:54;;;;;;;4.25;2.60;;;;;;;-146.64;100.00;117064.25;4983487;28;20030;-75
2022/06/27 02:09:19;;;;;;;7.53;2.83;;;;;;;-146.64;100.00;117331.34;5011911;28;20026;-75
2022/06/27 02:11:46;;;;;;;4.83;3.57;;;;;;;-146.64;100.00;117865.63;4992162;28;20038;-74
2022/06/27 02:14:12;;;;;;;4.68;2.67;;;;;;;-146.64;100.00;117064.25;4992194;28;20034;-75
2022/06/27 02:16:39;;;;;;;4.22;3.10;;;;;;;-146.64;100.00;117598.47;4991578;28;20044;-74
2022/06/27 02:19:05;;;;;;;3.90;2.75;;;;;;;-146.64;100.00;117598.47;5007792;28;20042;-74
2022/06/27 02:21:31;;;;;;;9.23;3.43;;;;;;;-146.64;100.00;117598.47;4995766;28;20089;-75
2022/06/27 02:23:58;;;;;;;10.90;3.20;;;;;;;-146.64;100.00;117331.34;5020695;28;20500;-74
2022/06/27 02:26:27;;;;;;;8.23;3.28;;;;;;;-146.64;100.00;117331.34;5008799;28;20030;-75
2022/06/27 02:28:53;;;;;;;5.97;3.10;;;;;;;-146.64;100.00;117064.25;4995730;28;20057;-74
2022/06/27 02:31:19;;;;;;;;;;;;;;;-146.64;100.00;117064.25;5009837;28;20481;-74
2022/06/27 02:33:46;;;;;;;5.57;3.50;;;;;;;-146.64;100.00;117064.25;5004777;28;19928;-76
2022/06/27 02:36:16;;;;;;;4.50;3.08;;;;;;;-146.64;100.00;117865.63;5002312;28;20038;-74
2022/06/27 02:38:43;;;;;;;3.97;2.63;;;;;;;-146.64;100.00;117865.63;5001806;28;20472;-75
2022/06/27 02:41:19;;;;;;;7.57;3.03;;;;;;;-146.64;100.00;117598.47;5008704;28;20026;-74
2022/06/27 02:43:47;;;;;;;11.55;3.25;;;;;;;-146.64;100.00;118132.78;5007175;28;20030;-75
2022/06/27 02:46:12;;;;;;;6.78;3.53;;;;;;;-146.64;100.00;118132.78;5003352;28;20056;-75
2022/06/27 02:48:39;;;;;;;11.37;3.47;;;;;;;-146.64;100.00;118399.94;5006160;28;20485;-74
2022/06/27 02:51:07;;;;;;;8.20;2.92;;;;;;;-146.64;100.00;118402.03;5009384;28;20521;-74
2022/06/27 02:53:35;;;;;;;6.35;2.83;;;;;;;-146.64;100.00;118402.03;4988687;28;20109;-75
2022/06/27 02:56:09;;;;;;;6.22;3.00;;;;;;;-146.64;100.00;118402.03;4996557;28;20038;-75
2022/06/27 02:59:02;;;;;;;9.13;3.13;;;;;;;-146.64;100.00;118402.03;5005322;28;20030;-75
2022/06/27 03:01:29;;;;;;;10.18;3.33;;;;;;;-146.64;100.00;118402.03;4997597;28;20028;-74
2022/06/27 03:03:57;;;;;;;11.30;3.58;;;;;;;-146.64;100.00;118402.03;4969680;28;20035;-75
2022/06/27 03:06:23;;;;;;;11.10;3.63;;;;;;;-146.64;100.00;118402.03;5003189;28;20037;-75
2022/06/27 03:08:48;;;;;;;11.07;3.07;;;;;;;-146.64;100.00;118402.03;5009396;28;20034;-74
2022/06/27 03:11:19;;;;;;;4.93;3.30;;;;;;;-146.64;100.00;118402.03;4994613;28;20033;-74
2022/06/27 03:13:47;;;;;;;5.78;3.47;;;;;;;-146.64;100.00;118402.03;5008246;28;20018;-75
2022/06/27 03:16:14;;;;;;;8.43;2.90;;;;;;;-146.64;100.00;118402.03;4996904;28;20045;-74
2022/06/27 03:18:39;;;;;;;6.47;3.30;;;;;;;-146.64;100.00;118402.03;5007973;28;20049;-76
2022/06/27 03:21:05;;;;;;;7.57;3.10;;;;;;;-146.64;100.00;118402.03;5009112;28;20405;-77
2022/06/27 03:23:30;;;;;;;4.70;3.17;;;;;;;-146.64;100.00;118402.03;5009711;28;20105;-75
2022/06/27 03:25:56;;;;;;;6.13;3.23;;;;;;;-146.64;100.00;118402.03;5010358;28;20034;-75
2022/06/27 03:28:22;;;;;;;5.67;3.50;;;;;;;-146.64;100.00;118402.03;5010359;28;20145;-75
2022/06/27 03:30:47;;;;;;;7.00;3.90;;;;;;;-146.64;100.00;118402.03;4992559;28;20034;-74
2022/06/27 03:33:13;;;;;;;8.00;3.40;;;;;;;-146.64;100.00;118402.03;5011410;28;20038;-74
2022/06/27 03:35:39;;;;;;;7.63;3.00;;;;;;;-146.64;100.00;118402.03;4994704;28;20038;-75
2022/06/27 03:38:05;;;;;;;5.03;3.43;;;;;;;-146.64;100.00;118402.03;5004695;28;20123;-75
2022/06/27 03:40:30;;;;;;;9.20;4.03;;;;;;;-146.64;100.00;118402.03;4991342;28;20337;-74
2022/06/27 03:42:56;;;;;;;9.50;4.60;;;;;;;-146.64;100.00;118402.03;4993032;28;20536;-75
2022/06/27 03:45:21;;;;;;;9.17;3.77;;;;;;;-146.64;100.00;118402.03;4997052;28;20371;-74
2022/06/27 03:47:58;;;;;;;10.97;3.93;;;;;;;-146.64;100.00;118402.03;4991754;28;20105;-74
2022/06/27 03:50:25;;;;;;;6.88;4.53;;;;;;;-146.64;100.00;118402.03;4989845;28;20041;-75
2022/06/27 03:52:51;;;;;;;7.60;3.30;;;;;;;-146.64;100.00;118402.03;4990879;28;20038;-74
2022/06/27 03:55:17;;;;;;;7.15;3.20;;;;;;;-146.64;100.00;118402.03;4993393;28;20026;-75
2022/06/27 03:57:54;;;;;;;6.53;3.50;;;;;;;-146.64;100.00;118402.03;4982523;28;20382;-74
2022/06/27 04:00:21;;;;;;;8.05;3.58;;;;;;;-146.64;100.00;118402.03;4997606;28;20026;-74
2022/06/27 04:02:47;;;;;;;9.93;3.67;;;;;;;-146.64;100.00;118402.03;4980948;28;20092;-74
2022/06/27 04:05:12;;;;;;;4.93;3.63;;;;;;;-146.64;100.00;118402.03;5016559;28;20034;-75
2022/06/27 04:07:38;;;;;;;9.77;3.60;;;;;;;-146.64;100.00;118402.03;4990490;28;20030;-74
2022/06/27 04:10:05;;;;;;;6.90;3.72;;;;;;;-146.64;100.00;118402.03;4983760;28;20076;-75
2022/06/27 04:12:30;;;;;;;;;;;;;;;-146.64;100.00;118402.03;5002472;28;20038;-75
2022/06/27 04:14:56;;;;;;;7.10;3.55;;;;;;;-146.64;100.00;118402.03;5000971;28;20265;-75
2022/06/27 04:17:21;;;;;;;6.80;3.80;;;;;;;-146.64;100.00;118402.03;5010485;28;20064;-75
2022/06/27 04:19:47;;;;;;;11.80;3.50;;;;;;;-146.64;100.00;118402.03;5003368;28;20343;-74
2022/06/27 04:22:12;;;;;;;8.13;3.63;;;;;;;-146.64;100.00;118402.03;5002694;28;20422;-75
2022/06/27 04:24:37;;;;;;;7.03;3.80;;;;;;;-146.64;100.00;118402.03;5009497;28;20350;-75
2022/06/27 04:27:04;;;;;;;7.77;4.07;;;;;;;-146.64;100.00;118402.03;5000394;28;20038;-75
2022/06/27 04:29:31;;;;;;;10.32;3.88;;;;;;;-146.64;100.00;118402.03;4998187;28;20026;-75
2022/06/27 04:31:57;;;;;;;;;;;;;;;-146.64;100.00;118402.03;5004953;28;20449;-75
2022/06/27 04:34:23;;;;;;;6.28;3.83;;;;;;;-146.64;100.00;118402.03;4981406;28;19923;-75
2022/06/27 04:36:49;;;;;;;4.55;3.75;;;;;;;-146.64;100.00;118402.03;5005586;28;20536;-76
2022/06/27 04:39:17;;;;;;;10.93;3.87;;;;;;;-146.64;100.00;118402.03;4989303;28;20038;-75
2022/06/27 04:41:44;;;;;;;7.18;3.88;;;;;;;-146.64;100.00;118402.03;4995019;28;20034;-75
2022/06/27 04:44:11;;;;;;;6.07;3.80;;;;;;;-146.64;100.00;118402.03;4979381;28;20026;-75
2022/06/27 04:46:37;;;;;;;5.47;3.42;;;;;;;-146.64;100.00;118402.03;4997272;28;20056;-76
2022/06/27 04:49:02;;;;;;;5.85;4.00;;;;;;;-146.64;100.00;118402.03;4992495;28;20033;-77
2022/06/27 04:51:28;;;;;;;4.60;3.33;;;;;;;-146.64;100.00;118402.03;4991825;28;20535;-76
2022/06/27 04:53:53;;;;;;;8.60;3.57;;;;;;;-146.64;100.00;118402.03;5009256;28;20078;-75
2022/06/27 04:56:19;;;;;;;8.50;4.13;;;;;;;-146.64;100.00;118402.03;5000453;28;20026;-76
2022/06/27 04:58:46;;;;;;;7.50;3.83;;;;;;;-146.64;100.00;118402.03;4991263;28;20030;-75
2022/06/27 05:01:11;;;;;;;10.02;4.00;;;;;;;-146.64;100.00;118402.03;5005774;28;20030;-75
2022/06/27 05:03:37;;;;;;;7.97;3.97;;;;;;;-146.64;100.00;118402.03;5007598;28;20101;-75
2022/06/27 05:06:02;;;;;;;8.17;3.80;;;;;;;-146.64;100.00;118402.03;4996137;28;20038;-75
2022/06/27 05:08:28;;;;;;;8.80;3.70;;;;;;;-146.64;100.00;118402.03;5021320;28;20034;-75
2022/06/27 05:10:53;;;;;;;9.33;3.93;;;;;;;-146.64;100.00;118402.03;4986701;28;20482;-75
2022/06/27 05:13:18;;;;;;;7.60;3.90;;;;;;;-146.64;100.00;118402.03;4992041;28;20038;-75
2022/06/27 05:15:44;;;;;;;7.77;3.87;;;;;;;-146.64;100.00;118402.03;4992889;28;20125;-74
2022/06/27 05:18:09;;;;;;;8.00;4.67;;;;;;;-146.64;100.00;118402.03;4994211;28;20109;-74
2022/06/27 05:20:34;;;;;;;13.83;5.20;;;;;;;-146.64;100.00;118402.03;5006424;28;20350;-76
2022/06/27 05:23:00;;;;;;;15.73;5.00;;;;;;;-146.64;100.00;118402.03;4994154;28;20033;-76
2022/06/27 05:25:26;;;;;;;13.80;5.38;;;;;;;-146.64;100.00;118402.03;4998725;28;20080;-77
2022/06/27 05:27:52;;;;;;;13.67;5.17;;;;;;;-146.64;100.00;118399.94;5008853;28;20087;-75
2022/06/27 05:30:17;;;;;;;6.70;5.47;;;;;;;-146.64;100.00;118399.94;4990167;28;20032;-75
2022/06/27 05:32:43;;;;;;;9.87;4.73;;;;;;;-146.64;100.00;118132.78;4989846;28;20025;-75
2022/06/27 05:35:08;;;;;;;10.47;5.47;;;;;;;-146.64;100.00;117865.63;5003193;28;20044;-75
2022/06/27 05:37:38;;;;;;;11.07;6.20;;;;;;;-146.64;100.00;117865.63;5009083;28;20104;-75
2022/06/27 05:40:05;;;;;;;18.27;6.25;;;;;;;-146.64;100.00;117064.25;4998243;28;20433;-75
2022/06/27 05:42:33;;;;;;;10.43;5.75;;;;;;;-146.64;100.00;117598.47;4994321;28;20057;-76
2022/06/27 05:44:58;;;;;;;7.53;4.80;;;;;;;-146.64;100.00;117865.63;5008049;28;20109;-75
2022/06/27 05:47:25;;;;;;;7.60;5.23;;;;;;;-146.64;100.00;117598.47;5003228;28;20030;-74
2022/06/27 05:49:52;;;;;;;10.88;5.45;;;;;;;-146.64;100.00;117331.34;5008340;28;20287;-75
2022/06/27 05:52:17;;;;;;;8.75;5.63;;;;;;;-146.64;100.00;116797.16;4991327;28;20031;-74
2022/06/27 05:54:44;;;;;;;18.90;6.37;;;;;;;-146.64;100.00;117331.34;5003278;28;20036;-75
2022/06/27 05:57:11;;;;;;;16.50;6.28;;;;;;;-146.64;100.00;117064.25;5007801;28;20461;-75
2022/06/27 05:59:37;;;;;;;11.20;5.82;;;;;;;-146.64;100.00;116797.16;5003647;28;20178;-75
2022/06/27 06:02:03;;;;;;;8.45;6.07;;;;;;;-146.64;100.00;116530.09;5003897;28;20033;-75
2022/06/27 06:04:30;;;;;;;8.50;5.95;;;;;;;-146.64;100.00;116530.09;4995258;28;20477;-75
2022/06/27 06:06:55;;;;;;;14.25;5.93;;;;;;;-146.64;100.00;116797.16;4991671;28;20039;-75
2022/06/27 06:09:21;;;;;;;11.53;6.20;;;;;;;-146.64;100.00;115462.00;5006096;28;20037;-76
2022/06/27 06:11:48;;;;;;;10.73;5.80;;;;;;;-146.64;100.00;114928.06;4997619;28;20039;-75
2022/06/27 06:14:16;;;;;;;11.65;6.03;;;;;;;-146.64;100.00;112792.97;5004799;28;20084;-75
2022/06/27 06:16:42;;;;;;;13.98;7.00;;;;;;;-146.64;100.00;112526.16;5006005;28;20111;-76
2022/06/27 06:19:09;;;;;;;12.80;7.18;;;;;;;-146.64;100.00;111992.59;5004410;28;20034;-75
2022/06/27 06:21:34;;;;;;;11.80;6.80;;;;;;;-146.64;100.00;108792.72;4991534;28;20420;-75
2022/06/27 06:23:59;;;;;;;10.90;7.13;;;;;;;-146.64;100.00;108526.16;5007431;28;20057;-75
2022/06/27 06:26:25;;;;;;;9.43;6.67;;;;;;;-146.64;100.00;109859.06;4992729;28;20385;-74
2022/06/27 06:28:51;;;;;;;14.50;7.03;;;;;;;-146.64;100.00;109592.44;5006254;28;20554;-74
2022/06/27 06:31:22;;;;;;;;;;;;;;;-146.64;100.00;110659.00;5000661;28;20038;-75
2022/06/27 06:33:53;;;;;;;13.23;6.55;;;;;;;-146.64;100.00;111725.84;5005941;28;20024;-75
2022/06/27 06:36:21;;;;;;;13.32;7.50;;;;;;;-146.64;100.00;113059.81;5005346;28;20380;-75
2022/06/27 06:38:47;;;;;;;11.15;7.25;;;;;;;-146.64;100.00;114394.19;5001717;28;20030;-75
2022/06/27 06:41:12;;;;;;;11.90;7.35;;;;;;;-146.64;100.00;114661.13;4990879;28;20037;-76
2022/06/27 06:43:37;;;;;;;12.00;7.80;;;;;;;-146.64;100.00;114127.28;5003196;28;20436;-75
2022/06/27 06:46:03;;;;;;;11.20;7.20;;;;;;;-146.64;100.00;114127.28;5010261;28;20072;-75
2022/06/27 06:48:28;;;;;;;11.53;7.30;;;;;;;-146.64;100.00;112526.16;5010643;28;20342;-75
2022/06/27 06:50:54;;;;;;;10.73;7.67;;;;;;;-146.64;100.00;113059.81;5009770;28;20035;-75
2022/06/27 06:53:20;;;;;;;16.02;8.98;;;;;;;-146.64;100.00;113059.81;5001718;28;20128;-75
2022/06/27 06:55:45;;;;;;;13.30;8.48;;;;;;;-146.64;100.00;113326.63;5023145;28;20034;-75
2022/06/27 06:58:11;;;;;;;12.70;7.73;;;;;;;-146.64;100.00;111992.59;5002800;28;20381;-76
2022/06/27 07:00:38;;;;;;;13.60;8.47;;;;;;;-146.64;100.00;109592.44;5005718;28;20034;-74
2022/06/27 07:03:04;;;;;;;12.52;9.05;;;;;;;-146.64;100.00;110925.69;4988308;28;20069;-75
2022/06/27 07:05:31;;;;;;;12.30;8.40;;;;;;;-146.64;100.00;111459.13;5009187;28;20119;-75
2022/06/27 07:07:58;;;;;;;12.68;8.40;;;;;;;-146.64;100.00;112526.16;4998776;28;20038;-75
2022/06/27 07:10:25;;;;;;;14.40;8.27;;;;;;;-146.64;100.00;113326.63;5006699;28;20030;-75
2022/06/27 07:12:51;;;;;;;12.63;8.30;;;;;;;-146.64;100.00;114394.19;5012269;28;20040;-75
2022/06/27 07:15:17;;;;;;;12.43;9.10;;;;;;;-146.64;100.00;113860.38;5007522;28;20120;-74
2022/06/27 07:17:46;;;;;;;13.27;9.75;;;;;;;-146.64;100.00;112526.16;5011652;28;20176;-75
2022/06/27 07:20:13;;;;;;;13.55;9.13;;;;;;;-146.64;100.00;110925.69;4992831;28;20143;-75
2022/06/27 07:22:40;;;;;;;20.20;9.80;;;;;;;-146.64;100.00;109859.06;5007908;28;20112;-75
2022/06/27 07:25:06;;;;;;;12.27;8.70;;;;;;;-146.64;100.00;107993.13;5010898;28;20037;-75
2022/06/27 07:27:33;;;;;;;14.90;9.35;;;;;;;-146.64;100.00;109325.84;5010211;28;20022;-75
2022/06/27 07:29:59;;;;;;;14.55;9.00;;;;;;;-146.64;100.00;109859.06;5002240;28;20496;-75
2022/06/27 07:32:25;;;;;;;18.20;10.00;;;;;;;-146.64;100.00;110125.69;5008190;28;20057;-75
2022/06/27 07:34:51;;;;;;;14.10;9.05;;;;;;;-146.64;100.00;108526.16;5008865;28;20563;-76
2022/06/27 07:37:18;;;;;;;11.82;9.35;;;;;;;-146.64;100.00;108259.63;4998436;28;20053;-73
2022/06/27 07:39:43;;;;;;;22.42;9.75;;;;;;;-146.64;100.00;108259.63;4982987;28;20052;-75
2022/06/27 07:42:09;;;;;;;15.37;9.97;;;;;;;-146.64;100.00;107193.69;4997032;28;20032;-76
2022/06/27 07:44:34;;;;;;;14.40;9.57;;;;;;;-146.64;100.00;108259.63;5026574;28;20058;-75
2022/06/27 07:47:03;;;;;;;16.43;10.17;;;;;;;-146.64;100.00;108792.72;5001070;28;20057;-76
2022/06/27 07:49:29;;;;;;;14.35;9.63;;;;;;;-146.64;100.00;108792.72;4987787;28;20029;-75
2022/06/27 07:51:54;;;;;;;19.10;9.80;;;;;;;-146.64;100.00;111459.13;5008139;28;20087;-77
2022/06/27 07:54:19;;;;;;;12.30;9.13;;;;;;;-146.64;100.00;113860.38;5007669;28;20089;-76
2022/06/27 07:56:46;;;;;;;16.77;9.90;;;;;;;-146.64;100.00;112792.97;5010732;28;20062;-75
2022/06/27 07:59:13;;;;;;;13.02;9.60;;;;;;;-146.64;100.00;111992.59;4996385;28;20018;-76
2022/06/27 08:01:40;;;;;;;17.63;10.52;;;;;;;-146.64;100.00;112526.16;5019778;28;20034;-75
2022/06/27 08:04:07;;;;;;;23.75;9.88;;;;;;;-146.64;100.00;110392.34;4996563;28;20397;-75
2022/06/27 08:06:33;;;;;;;14.82;9.50;;;;;;;-146.64;100.00;110925.69;5004653;28;20034;-76
2022/06/27 08:09:02;;;;;;;14.00;9.43;;;;;;;-146.64;100.00;110659.00;4998591;28;20037;-75
2022/06/27 08:11:33;;;;;;;14.07;9.88;;;;;;;-146.64;100.00;110925.69;5006849;28;20279;-75
2022/06/27 08:14:03;;;;;;;16.08;9.65;;;;;;;-146.64;100.00;110125.69;5002455;28;20433;-75
2022/06/27 08:16:29;;;;;;;20.23;9.73;;;;;;;-146.64;100.00;109325.84;5006228;28;20030;-74
2022/06/27 08:18:55;;;;;;;15.30;10.20;;;;;;;-146.64;100.00;107460.16;4999642;28;20038;-75
2022/06/27 08:21:25;;;;;;;17.13;9.53;;;;;;;-146.64;100.00;106128.03;4988142;28;20064;-75
2022/06/27 08:23:56;;;;;;;15.23;9.18;;;;;;;-146.64;100.00;103997.56;4992169;28;20512;-76
2022/06/27 08:26:23;;;;;;;15.10;9.88;;;;;;;-146.64;100.00;101336.06;4992178;28;20362;-75
2022/06/27 08:28:49;;;;;;;19.58;9.55;;;;;;;-146.64;100.00;98676.28;5009796;28;20065;-75
2022/06/27 08:31:15;;;;;;;20.20;10.50;;;;;;;-146.64;100.00;98144.53;5008029;28;20042;-75
2022/06/27 08:33:43;;;;;;;11.90;9.57;;;;;;;-146.64;100.00;93361.97;4994719;28;20149;-76
2022/06/27 08:36:08;;;;;;;18.77;10.60;;;;;;;-146.64;100.00;95221.19;5010941;28;20038;-79
2022/06/27 08:38:39;;;;;;;21.90;9.83;;;;;;;-146.64;100.00;96815.47;5004765;28;20121;-79
2022/06/27 08:41:06;;;;;;;23.13;10.35;;;;;;;-146.64;100.00;94689.88;4993485;28;20037;-79
2022/06/27 08:43:33;;;;;;;21.13;10.48;;;;;;;-146.64;100.00;95486.84;4991106;28;20041;-78
2022/06/27 08:45:59;;;;;;;15.48;9.57;;;;;;;-146.64;100.00;99474.03;4995154;28;20041;-77
2022/06/27 08:48:24;;;;;;;15.47;10.47;;;;;;;-146.64;100.00;100005.94;5015164;28;20026;-78
2022/06/27 08:50:50;;;;;;;18.43;10.93;;;;;;;-146.64;100.00;101070.00;5001532;28;20128;-77
2022/06/27 08:53:17;;;;;;;18.77;10.27;;;;;;;-146.64;100.00;104796.38;5006005;28;20035;-77
2022/06/27 08:55:44;;;;;;;12.63;10.00;;;;;;;-146.64;100.00;103731.34;5002868;28;20031;-77
2022/06/27 08:58:11;;;;;;;18.00;10.43;;;;;;;-146.64;100.00;103465.13;5000166;28;20029;-78
2022/06/27 09:00:41;;;;;;;;;;;;;;;-146.64;100.00;106394.44;5010519;28;20030;-78
2022/06/27 09:03:07;;;;;;;17.50;10.13;;;;;;;-146.64;100.00;108259.63;5003381;28;19957;-78
2022/06/27 09:05:33;;;;;;;16.85;9.95;;;;;;;-146.64;100.00;107460.16;4999852;28;20026;-78
2022/06/27 09:08:02;;;;;;;14.48;9.15;;;;;;;-146.64;100.00;104530.09;4997729;28;20042;-77
2022/06/27 09:10:42;;;;;;;14.63;8.27;;;;;;;-146.64;100.00;102932.75;5010435;28;20029;-77
2022/06/27 09:13:11;;;;;;;13.35;8.20;;;;;;;-146.64;100.00;100803.97;5008068;28;20117;-77
2022/06/27 09:15:51;;;;;;;24.40;9.05;;;;;;;-146.64;100.00;102400.44;4992679;28;20060;-77
2022/06/27 09:18:28;;;;;;;16.73;8.57;;;;;;;-146.64;100.00;101070.00;5002342;28;20077;-77
2022/06/27 09:20:55;;;;;;;15.48;9.15;;;;;;;-146.64;100.00;104796.38;4996358;28;20048;-78
2022/06/27 09:23:47;;;;;;;15.13;8.98;;;;;;;-146.64;100.00;103731.34;4990273;28;20033;-77
2022/06/27 09:26:15;;;;;;;14.95;9.00;;;;;;;-146.64;100.00;101602.13;5012557;28;20125;-76
2022/06/27 09:28:53;;;;;;;12.77;9.32;;;;;;;-146.64;100.00;100271.94;5005139;28;20037;-77
2022/06/27 09:31:28;;;;;;;18.70;9.27;;;;;;;-146.64;100.00;98942.19;5002825;28;20496;-78
2022/06/27 09:34:23;;;;;;;16.15;10.38;;;;;;;-146.64;100.00;96549.72;4999654;28;20030;-77
2022/06/27 09:36:50;;;;;;;18.92;9.20;;;;;;;-146.64;100.00;97347.03;4978173;28;20338;-76
2022/06/27 09:39:24;;;;;;;15.95;10.07;;;;;;;-146.64;100.00;100005.94;5002930;28;20366;-77
2022/06/27 09:41:58;;;;;;;16.73;9.48;;;;;;;-146.64;100.00;100803.97;5010007;28;20109;-77
2022/06/27 09:44:27;;;;;;;15.30;9.60;;;;;;;-146.64;100.00;103198.94;4991711;28;20030;-76
2022/06/27 09:47:20;;;;;;;19.70;10.32;;;;;;;-146.64;100.00;103198.94;4999010;28;20029;-77
2022/06/27 09:49:48;;;;;;;22.17;10.82;;;;;;;-146.64;100.00;104530.09;4995119;28;20045;-77
2022/06/27 09:52:18;;;;;;;19.92;10.85;;;;;;;-146.64;100.00;105329.00;4989022;28;20030;-77
2022/06/27 09:54:46;;;;;;;25.30;11.63;;;;;;;-146.64;100.00;105861.69;4991156;28;20026;-76
2022/06/27 09:57:13;;;;;;;16.35;10.65;;;;;;;-146.64;100.00;103465.13;5006056;28;20501;-77
2022/06/27 09:59:39;;;;;;;17.25;10.90;;;;;;;-146.64;100.00;104796.38;5007121;28;20025;-77
2022/06/27 10:02:06;;;;;;;21.00;10.55;;;;;;;-146.64;100.00;103731.34;5009178;28;20056;-76
2022/06/27 10:04:32;;;;;;;;;;;;;;;-146.64;100.00;105595.31;4999009;28;20457;-76
2022/06/27 10:07:01;;;;;;;19.25;10.88;;;;;;;-146.64;100.00;105861.69;4996587;28;20008;-76
2022/06/27 10:09:28;;;;;;;16.83;10.85;;;;;;;-146.64;100.00;106660.84;4999238;28;20022;-77
2022/06/27 10:12:25;;;;;;;13.73;8.73;;;;;;;-146.64;100.00;99739.97;4999382;28;20052;-78
2022/06/27 10:15:18;;;;;;;13.05;8.10;;;;;;;-146.64;100.00;101868.22;4997541;28;20037;-77
2022/06/27 10:17:46;;;;;;;20.35;8.65;;;;;;;-146.64;100.00;103198.94;4995879;28;20022;-78
2022/06/27 10:20:21;;;;;;;22.58;9.02;;;;;;;-146.64;100.00;106660.84;5009730;28;20045;-77
2022/06/27 10:23:08;;;;;;;17.27;10.40;;;;;;;-146.64;100.00;109859.06;5011822;28;20080;-77
2022/06/27 10:25:39;;;;;;;17.52;10.60;;;;;;;-146.64;100.00;110925.69;5006376;28;20124;-77
2022/06/27 10:28:10;;;;;;;25.88;11.23;;;;;;;-146.64;100.00;111992.59;5024318;28;20023;-77
2022/06/27 10:30:44;;;;;;;21.10;12.15;;;;;;;-146.64;100.00;113326.63;5007044;28;20030;-77
2022/06/27 10:33:25;;;;;;;18.30;11.93;;;;;;;-146.64;100.00;114928.06;4999220;28;20497;-77
2022/06/27 10:36:02;;;;;;;18.20;11.25;;;;;;;-146.64;100.00;113326.63;5009798;28;20041;-77
2022/06/27 10:38:28;;;;;;;24.13;11.52;;;;;;;-146.64;100.00;114928.06;5011350;28;20026;-77
2022/06/27 10:40:55;;;;;;;14.40;9.23;;;;;;;-146.64;100.00;111192.41;4996709;28;20066;-77
2022/06/27 10:43:50;;;;;;;14.95;7.78;;;;;;;-146.64;100.00;104796.38;5009068;28;20033;-77
2022/06/27 10:46:15;;;;;;;10.82;6.78;;;;;;;-146.64;100.00;105861.69;5011565;28;20531;-77
2022/06/27 10:48:42;;;;;;;11.57;5.60;;;;;;;-146.64;100.00;101336.06;5007044;28;20034;-78
2022/06/27 10:51:21;;;;;;;8.07;4.47;;;;;;;-146.64;100.00;96815.47;4999006;28;20038;-78
2022/06/27 10:53:48;;;;;;;11.13;4.10;;;;;;;-146.64;100.00;102400.44;5006739;28;20105;-78
2022/06/27 10:56:26;;;;;;;18.52;4.40;;;;;;;-146.64;100.00;106927.25;4995374;28;20515;-79
2022/06/27 10:58:52;;;;;;;6.22;3.80;;;;;;;-146.64;100.00;103997.56;5005326;28;20065;-78
2022/06/27 11:01:18;;;;;;;8.53;3.70;;;;;;;-146.64;100.00;105062.66;5009117;28;20520;-78